Time;durP1;ratioP1;P1;durP2;ratioP2;P2;SDS_P1;SDS_P2;PMS_P1;PMS_P2;Temp;Humidity;BMP_temperature;BMP_pressure;BME280_temperature;BME280_humidity;BME280_pressure;Samples;Min_cycle;Max_cycle;Signal;HPM_P1;HPM_P2
2022/03/03 00:01:38;;;;;;;;;;;;;;;-0.25;42.43;98923.75;5072334;28;19933;-63
2022/03/03 00:04:03;;;;;;;;;;;;;;;-0.29;42.31;98918.13;5056093;28;19924;-62
2022/03/03 00:06:29;;;;;;;;;;;;;;;-0.30;42.26;98913.88;5052305;28;19929;-61
2022/03/03 00:08:55;;;;;;;;;;;;;;;-0.36;42.70;98908.56;5034141;28;20306;-62
2022/03/03 00:11:20;;;;;;;;;;;;;;;-0.41;42.87;98901.31;5053015;28;19936;-61
2022/03/03 00:13:46;;;;;;;;;;;;;;;-0.42;42.88;98904.88;5051932;28;19939;-61
2022/03/03 00:16:12;;;;;;;;;;;;;;;-0.45;42.61;98902.63;5050619;28;20087;-60
2022/03/03 00:18:37;;;;;;;;;;;;;;;-0.50;42.86;98894.53;5051732;28;19972;-60
2022/03/03 00:21:03;;;;;;;;;;;;;;;-0.48;43.29;98903.00;5051922;28;20023;-62
2022/03/03 00:23:29;;;;;;;;;;;;;;;-0.53;43.50;98893.13;5052718;28;20052;-61
2022/03/03 00:25:54;;;;;;;;;;;;;;;-0.54;43.30;98898.50;5057529;28;20278;-60
2022/03/03 00:28:20;;;;;;;;;;;;;;;-0.55;43.53;98895.09;5071655;28;19924;-60
2022/03/03 00:30:45;;;;;;;;;;;;;;;-0.58;43.52;98889.44;5070862;28;20302;-60
2022/03/03 00:33:11;;;;;;;;;;;;;;;-0.62;43.87;98882.94;5055524;28;19986;-61
2022/03/03 00:35:37;;;;;;;;;;;;;;;-0.63;43.87;98878.75;5051531;28;19932;-60
2022/03/03 00:38:02;;;;;;;;;;;;;;;-0.70;44.11;98881.25;5052014;28;19932;-61
2022/03/03 00:40:28;;;;;;;;;;;;;;;-0.78;44.24;98874.31;5051475;28;20299;-59
2022/03/03 00:42:53;;;;;;;;;;;;;;;-0.78;44.21;98873.50;5067303;28;19935;-61
2022/03/03 00:45:19;;;;;;;;;;;;;;;-0.75;44.45;98879.16;5071221;28;19931;-58
2022/03/03 00:47:44;;;;;;;;;;;;;;;-0.78;44.58;98876.13;5071994;28;19983;-59
2022/03/03 00:50:10;;;;;;;;;;;;;;;-0.79;44.64;98870.09;5071826;28;19931;-59
2022/03/03 00:52:35;;;;;;;;;;;;;;;-0.86;44.95;98869.19;5072054;28;19928;-59
2022/03/03 00:55:02;;;;;;;;;;;;;;;-0.86;45.07;98866.56;5071885;28;19971;-60
2022/03/03 00:57:28;;;;;;;;;;;;;;;-0.89;45.39;98864.34;5064393;28;19933;-59
2022/03/03 00:59:54;;;;;;;;;;;;;;;-0.85;44.74;98864.78;5051736;28;20380;-58
2022/03/03 01:02:19;;;;;;;;;;;;;;;-0.89;45.27;98859.13;5054752;28;19936;-60
2022/03/03 01:04:44;;;;;;;;;;;;;;;-0.87;45.29;98857.16;5055448;28;19924;-59
2022/03/03 01:07:10;;;;;;;;;;;;;;;-0.81;45.19;98856.47;5055658;28;19964;-60
2022/03/03 01:09:36;;;;;;;;;;;;;;;-0.81;44.89;98860.84;5055693;28;19932;-60
2022/03/03 01:12:01;;;;;;;;;;;;;;;-0.83;45.26;98852.41;5055666;28;20283;-62
2022/03/03 01:14:27;;;;;;;;;;;;;;;-0.86;45.25;98845.75;5071340;28;19932;-61
2022/03/03 01:16:53;;;;;;;;;;;;;;;-0.83;45.01;98848.00;5057052;28;19935;-60
2022/03/03 01:19:18;;;;;;;;;;;;;;;-0.88;45.29;98841.72;5075170;28;19924;-62
2022/03/03 01:21:44;;;;;;;;;;;;;;;-0.89;45.44;98840.91;5075443;28;19989;-60
2022/03/03 01:24:09;;;;;;;;;;;;;;;-0.90;45.61;98828.91;5075340;28;19925;-60
2022/03/03 01:26:35;;;;;;;;;;;;;;;-0.96;45.82;98822.59;5057116;28;19954;-59
2022/03/03 01:29:01;;;;;;;;;;;;;;;-0.92;45.55;98817.84;5068820;28;20367;-58
2022/03/03 01:31:26;;;;;;;;;;;;;;;-0.90;45.49;98820.28;5054939;28;20414;-60
2022/03/03 01:33:52;;;;;;;;;;;;;;;-0.92;45.78;98810.84;5074534;28;20317;-61
2022/03/03 01:36:18;;;;;;;;;;;;;;;-0.88;45.83;98810.50;5073644;28;19976;-60
2022/03/03 01:38:44;;;;;;;;;;;;;;;-0.88;45.72;98808.72;5074538;28;19928;-59
2022/03/03 01:41:09;;;;;;;;;;;;;;;-0.92;46.03;98813.44;5074923;28;20389;-59
2022/03/03 01:43:35;;;;;;;;;;;;;;;-0.93;45.96;98811.03;5074762;28;20341;-60
2022/03/03 01:46:00;;;;;;;;;;;;;;;-1.00;46.75;98807.50;5058222;28;20062;-59
2022/03/03 01:48:26;;;;;;;;;;;;;;;-1.00;46.64;98800.53;5054837;28;19925;-62
2022/03/03 01:50:52;;;;;;;;;;;;;;;-1.01;46.68;98800.69;5054618;28;20416;-60
2022/03/03 01:53:18;;;;;;;;;;;;;;;-1.01;46.98;98796.31;5054772;28;19929;-60
2022/03/03 01:55:44;;;;;;;;;;;;;;;-1.02;46.95;98796.50;5054714;28;19951;-60
2022/03/03 01:58:09;;;;;;;;;;;;;;;-1.09;47.09;98791.16;5054510;28;19951;-59
2022/03/03 02:00:35;;;;;;;;;;;;;;;-1.06;47.13;98787.41;5060550;28;19964;-60
2022/03/03 02:03:01;;;;;;;;;;;;;;;-1.05;47.14;98784.66;5072838;28;20037;-59
2022/03/03 02:05:27;;;;;;;;;;;;;;;-1.10;47.61;98776.56;5073086;28;19920;-59
2022/03/03 02:07:53;;;;;;;;;;;;;;;-1.10;47.80;98786.16;5074456;28;20337;-59
2022/03/03 02:10:18;;;;;;;;;;;;;;;-1.13;47.82;98776.91;5074091;28;19947;-65
2022/03/03 02:12:44;;;;;;;;;;;;;;;-1.17;47.58;98779.06;5074209;28;20327;-59
2022/03/03 02:15:15;;;;;;;;;;;;;;;-1.20;47.64;98781.22;5074210;28;19928;-58
2022/03/03 02:17:41;;;;;;;;;;;;;;;-1.26;47.84;98774.94;5074148;28;20311;-59
2022/03/03 02:20:07;;;;;;;;;;;;;;;-1.35;48.05;98768.19;5074100;28;19924;-60
2022/03/03 02:22:33;;;;;;;;;;;;;;;-1.42;48.22;98764.66;5074566;28;19968;-60
2022/03/03 02:24:59;;;;;;;;;;;;;;;-1.50;48.82;98762.94;5068595;28;19924;-60
2022/03/03 02:27:24;;;;;;;;;;;;;;;-1.55;49.10;98761.84;5036319;28;19936;-60
2022/03/03 02:29:50;;;;;;;;;;;;;;;-1.63;48.92;98755.72;5052848;28;19932;-60
2022/03/03 02:32:15;;;;;;;;;;;;;;;-1.65;49.29;98754.28;5061480;28;20255;-59
2022/03/03 02:34:46;;;;;;;;;;;;;;;-1.70;49.40;98751.41;5073254;28;19955;-60
2022/03/03 02:37:11;;;;;;;;;;;;;;;-1.73;49.68;98749.97;5073792;28;19947;-59
2022/03/03 02:39:37;;;;;;;;;;;;;;;-1.78;49.78;98741.88;5072511;28;20386;-60
2022/03/03 02:42:02;;;;;;;;;;;;;;;-1.83;49.98;98741.59;5073401;28;19928;-61
2022/03/03 02:44:28;;;;;;;;;;;;;;;-1.88;50.16;98739.53;5071803;28;19982;-61
2022/03/03 02:46:53;;;;;;;;;;;;;;;-1.89;50.07;98742.28;5072037;28;19928;-59
2022/03/03 02:49:19;;;;;;;;;;;;;;;-1.90;50.11;98738.88;5055511;28;19938;-59
2022/03/03 02:51:45;;;;;;;;;;;;;;;-1.91;49.87;98742.47;5053355;28;20007;-60
2022/03/03 02:54:10;;;;;;;;;;;;;;;-1.91;49.95;98737.28;5053631;28;19925;-62
2022/03/03 02:57:53;;;;;;;;;;;;;;;-1.94;50.39;98734.19;5053436;28;20051;-60
2022/03/03 02:59:21;;;;;;;;;;;;;;;-1.96;50.41;98728.38;5053013;28;19924;-59
2022/03/03 03:01:47;;;;;;;;;;;;;;;-2.00;50.77;98730.50;5061335;28;20427;-59
2022/03/03 03:04:13;;;;;;;;;;;;;;;-2.02;50.74;98739.47;5073202;28;19924;-60
2022/03/03 03:06:38;;;;;;;;;;;;;;;-2.06;50.84;98738.97;5071163;28;20385;-60
2022/03/03 03:09:04;;;;;;;;;;;;;;;-2.11;51.18;98731.72;5062249;28;19925;-61
2022/03/03 03:11:29;;;;;;;;;;;;;;;-2.14;50.99;98721.66;5053296;28;19928;-60
2022/03/03 03:13:55;;;;;;;;;;;;;;;-2.17;51.05;98716.81;5053296;28;19932;-61
2022/03/03 03:16:20;;;;;;;;;;;;;;;-2.23;51.32;98722.69;5053289;28;20031;-60
2022/03/03 03:18:46;;;;;;;;;;;;;;;-2.29;51.44;98724.19;5053207;28;20394;-59
2022/03/03 03:21:11;;;;;;;;;;;;;;;-2.30;51.42;98727.75;5053050;28;19928;-61
2022/03/03 03:23:37;;;;;;;;;;;;;;;-2.33;50.98;98711.72;5051790;28;19925;-61
2022/03/03 03:26:03;;;;;;;;;;;;;;;-2.37;51.85;98715.63;5052989;28;20398;-61
2022/03/03 03:28:28;;;;;;;;;;;;;;;-2.36;51.53;98704.28;5051432;28;19929;-62
2022/03/03 03:30:54;;;;;;;;;;;;;;;-2.35;52.06;98704.09;5052818;28;20320;-61
2022/03/03 03:33:19;;;;;;;;;;;;;;;-2.34;51.77;98691.94;5052701;28;19931;-61
2022/03/03 03:35:45;;;;;;;;;;;;;;;-2.40;52.14;98696.03;5052371;28;20364;-60
2022/03/03 03:38:10;;;;;;;;;;;;;;;-2.44;52.19;98686.13;5034730;28;19940;-61
2022/03/03 03:40:36;;;;;;;;;;;;;;;-2.44;52.21;98688.72;5052262;28;20432;-59
2022/03/03 03:43:01;;;;;;;;;;;;;;;-2.48;52.92;98674.50;5052542;28;19964;-61
2022/03/03 03:45:27;;;;;;;;;;;;;;;-2.48;52.67;98679.69;5052490;28;19959;-61
2022/03/03 03:47:53;;;;;;;;;;;;;;;-2.44;52.60;98678.34;5052504;28;19924;-62
2022/03/03 03:50:18;;;;;;;;;;;;;;;-2.43;52.88;98678.19;5052272;28;20291;-60
2022/03/03 03:52:44;;;;;;;;;;;;;;;-2.48;53.53;98670.09;5052079;28;19979;-62
2022/03/03 03:55:10;;;;;;;;;;;;;;;-2.45;53.20;98679.34;5052204;28;19967;-61
2022/03/03 03:57:36;;;;;;;;;;;;;;;-2.40;53.64;98671.84;5050912;28;19929;-60
2022/03/03 04:00:05;;;;;;;;;;;;;;;-2.39;53.45;98668.28;5052146;28;19936;-60
2022/03/03 04:02:38;;;;;;;;;;;;;;;-2.35;53.81;98667.78;5068788;28;19974;-60
2022/03/03 04:05:04;;;;;;;;;;;;;;;-2.36;53.55;98668.72;5071717;28;20362;-59
2022/03/03 04:07:29;;;;;;;;;;;;;;;-2.35;53.58;98667.78;5069178;28;19932;-59
2022/03/03 04:09:55;;;;;;;;;;;;;;;-2.33;53.74;98668.38;5071564;28;19963;-59
2022/03/03 04:12:20;;;;;;;;;;;;;;;-2.35;53.83;98664.38;5072351;28;20385;-58
2022/03/03 04:14:46;;;;;;;;;;;;;;;-2.33;54.24;98657.19;5071614;28;19935;-59
2022/03/03 04:17:11;;;;;;;;;;;;;;;-2.38;54.26;98656.91;5071886;28;19924;-61
2022/03/03 04:19:37;;;;;;;;;;;;;;;-2.32;54.14;98657.03;5057435;28;20460;-61
2022/03/03 04:22:03;;;;;;;;;;;;;;;-2.32;54.09;98654.44;5052077;28;19928;-60
2022/03/03 04:24:28;;;;;;;;;;;;;;;-2.31;54.21;98656.06;5052110;28;20570;-62
2022/03/03 04:26:54;;;;;;;;;;;;;;;-2.31;54.15;98652.66;5050551;28;20025;-60
2022/03/03 04:29:20;;;;;;;;;;;;;;;-2.21;53.83;98647.22;5051901;28;19925;-61
2022/03/03 04:31:45;;;;;;;;;;;;;;;-2.23;53.78;98647.41;5051956;28;20589;-62
2022/03/03 04:34:11;;;;;;;;;;;;;;;-2.20;53.67;98647.06;5051671;28;19925;-62
2022/03/03 04:36:36;;;;;;;;;;;;;;;-2.13;53.55;98657.56;5050065;28;20357;-61
2022/03/03 04:39:02;;;;;;;;;;;;;;;-2.06;53.12;98651.50;5051660;28;20390;-59
2022/03/03 04:41:28;;;;;;;;;;;;;;;-2.00;53.15;98656.97;5052063;28;20316;-60
2022/03/03 04:43:53;;;;;;;;;;;;;;;-1.94;52.55;98658.84;5051834;28;19932;-62
2022/03/03 04:46:19;;;;;;;;;;;;;;;-1.84;52.58;98659.44;5051571;28;20020;-59
2022/03/03 04:48:44;;;;;;;;;;;;;;;-1.79;51.89;98664.94;5051712;28;20023;-62
2022/03/03 04:51:10;;;;;;;;;;;;;;;-1.68;52.00;98661.06;5051494;28;19929;-60
2022/03/03 04:53:35;;;;;;;;;;;;;;;-1.62;51.08;98658.59;5050006;28;19928;-59
2022/03/03 04:56:01;;;;;;;;;;;;;;;-1.65;50.80;98652.94;5051095;28;20354;-60
2022/03/03 04:58:27;;;;;;;;;;;;;;;-1.66;49.83;98665.13;5067496;28;19924;-64
2022/03/03 05:00:52;;;;;;;;;;;;;;;-1.53;49.68;98661.94;5071069;28;20386;-61
2022/03/03 05:03:18;;;;;;;;;;;;;;;-1.45;49.20;98669.63;5070213;28;20023;-61
2022/03/03 05:05:43;;;;;;;;;;;;;;;-1.32;48.83;98674.22;5069569;28;19928;-63
2022/03/03 05:08:09;;;;;;;;;;;;;;;-1.23;48.57;98673.16;5070915;28;19924;-61
2022/03/03 05:10:34;;;;;;;;;;;;;;;-1.14;47.86;98673.88;5070786;28;19924;-61
2022/03/03 05:13:01;;;;;;;;;;;;;;;-1.10;47.34;98669.13;5070851;28;19932;-63
2022/03/03 05:15:27;;;;;;;;;;;;;;;-1.02;47.43;98672.44;5052953;28;19952;-60
2022/03/03 05:17:53;;;;;;;;;;;;;;;-0.85;46.87;98667.84;5065141;28;19928;-64
2022/03/03 05:20:18;;;;;;;;;;;;;;;-0.73;46.71;98679.41;5062061;28;19955;-60
2022/03/03 05:22:44;;;;;;;;;;;;;;;-0.67;46.02;98680.47;5051566;28;19929;-62
2022/03/03 05:25:12;;;;;;;;;;;;;;;-0.55;46.30;98675.59;5033426;28;19925;-61
2022/03/03 05:27:39;;;;;;;;;;;;;;;-0.45;45.73;98681.31;5051611;28;20083;-62
2022/03/03 05:30:06;;;;;;;;;;;;;;;-0.37;45.55;98683.00;5051189;28;19931;-61
2022/03/03 05:32:32;;;;;;;;;;;;;;;-0.36;45.74;98676.81;5051487;28;19982;-60
2022/03/03 05:34:57;;;;;;;;;;;;;;;-0.35;45.58;98674.03;5049660;28;19925;-62
2022/03/03 05:37:24;;;;;;;;;;;;;;;-0.49;45.92;98667.88;5060211;28;20393;-61
2022/03/03 05:39:50;;;;;;;;;;;;;;;-0.40;46.26;98665.16;5069785;28;19925;-61
2022/03/03 05:42:18;;;;;;;;;;;;;;;-0.27;45.85;98673.09;5071360;28;19954;-60
2022/03/03 05:44:44;;;;;;;;;;;;;;;-0.16;45.84;98664.00;5070820;28;20015;-62
2022/03/03 05:47:10;;;;;;;;;;;;;;;-0.13;45.84;98666.22;5071029;28;19957;-61
2022/03/03 05:49:36;;;;;;;;;;;;;;;-0.14;45.55;98659.41;5074357;28;20349;-62
2022/03/03 05:52:01;;;;;;;;;;;;;;;-0.05;45.41;98659.09;5068185;28;19924;-62
2022/03/03 05:54:27;;;;;;;;;;;;;;;0.01;45.34;98651.53;5071559;28;19925;-61
2022/03/03 05:56:54;;;;;;;;;;;;;;;-0.02;45.09;98657.91;5060276;28;20406;-62
2022/03/03 05:59:21;;;;;;;;;;;;;;;-0.02;45.14;98650.09;5061846;28;20010;-62
2022/03/03 06:01:46;;;;;;;;;;;;;;;-0.06;45.35;98654.88;5047641;28;20011;-60
2022/03/03 06:04:13;;;;;;;;;;;;;;;-0.06;44.96;98649.66;5050146;28;20157;-63
2022/03/03 06:06:38;;;;;;;;;;;;;;;-0.02;45.11;98644.88;5050597;28;20442;-63
2022/03/03 06:09:05;;;;;;;;;;;;;;;0.07;44.96;98642.97;5066961;28;20047;-63
2022/03/03 06:11:31;;;;;;;;;;;;;;;0.08;44.59;98639.34;5049133;28;20315;-61
2022/03/03 06:14:07;;;;;;;;;;;;;;;0.15;44.88;98641.03;5050893;28;19924;-59
2022/03/03 06:16:33;;;;;;;;;;;;;;;0.04;45.01;98641.53;5049373;28;19974;-61
2022/03/03 06:18:58;;;;;;;;;;;;;;;0.16;45.07;98640.03;5054408;28;19929;-63
2022/03/03 06:21:24;;;;;;;;;;;;;;;0.17;45.12;98639.00;5051462;28;19929;-62
2022/03/03 06:23:50;;;;;;;;;;;;;;;0.27;44.57;98643.13;5052929;28;19938;-62
2022/03/03 06:26:16;;;;;;;;;;;;;;;0.37;44.05;98647.00;5051063;28;19929;-61
2022/03/03 06:28:42;;;;;;;;;;;;;;;0.39;44.42;98647.63;5050789;28;20039;-60
2022/03/03 06:31:08;;;;;;;;;;;;;;;0.42;44.30;98639.41;5049368;28;20326;-60
2022/03/03 06:33:33;;;;;;;;;;;;;;;0.49;44.76;98633.44;5052426;28;20382;-61
2022/03/03 06:35:59;;;;;;;;;;;;;;;0.51;44.25;98629.66;5032747;28;19928;-61
2022/03/03 06:38:25;;;;;;;;;;;;;;;0.52;44.59;98625.22;5050399;28;19971;-63
2022/03/03 06:40:50;;;;;;;;;;;;;;;0.53;44.21;98622.44;5049143;28;20019;-62
2022/03/03 06:43:18;;;;;;;;;;;;;;;0.46;44.51;98618.97;5048082;28;20386;-62
2022/03/03 06:45:43;;;;;;;;;;;;;;;0.51;44.24;98611.38;5054605;28;19931;-62
2022/03/03 06:48:09;;;;;;;;;;;;;;;0.45;44.46;98609.56;5069050;28;20031;-62
2022/03/03 06:50:36;;;;;;;;;;;;;;;0.44;44.37;98615.75;5070886;28;20429;-62
2022/03/03 06:53:02;;;;;;;;;;;;;;;0.38;45.22;98613.91;5070142;28;19987;-59
2022/03/03 06:55:28;;;;;;;;;;;;;;;0.21;45.07;98613.41;5071226;28;20027;-61
2022/03/03 06:57:55;;;;;;;;;;;;;;;0.30;45.18;98612.25;5064291;28;20022;-63
2022/03/03 07:00:22;;;;;;;;;;;;;;;0.32;45.02;98609.44;5048859;28;20019;-61
2022/03/03 07:02:48;;;;;;;;;;;;;;;0.38;44.83;98614.72;5031829;28;20489;-61
2022/03/03 07:05:15;;;;;;;;;;;;;;;0.40;45.22;98617.94;5045991;28;19984;-62
2022/03/03 07:07:41;;;;;;;;;;;;;;;0.43;44.66;98619.34;5048246;28;19956;-61
2022/03/03 07:10:07;;;;;;;;;;;;;;;0.49;44.58;98608.16;5046790;28;19929;-62
2022/03/03 07:12:33;;;;;;;;;;;;;;;0.56;45.11;98610.81;5048676;28;19935;-62
2022/03/03 07:14:59;;;;;;;;;;;;;;;0.56;44.75;98611.63;5031066;28;19939;-62
2022/03/03 07:17:30;;;;;;;;;;;;;;;0.62;44.85;98607.44;5047802;28;19925;-61
2022/03/03 07:20:05;;;;;;;;;;;;;;;0.54;44.78;98608.41;5048422;28;19928;-62
2022/03/03 07:22:35;;;;;;;;;;;;;;;0.64;45.09;98608.84;5050189;28;19920;-61
2022/03/03 07:25:01;;;;;;;;;;;;;;;0.71;44.39;98600.25;5048391;28;19986;-61
2022/03/03 07:27:28;;;;;;;;;;;;;;;0.73;44.78;98600.88;5053281;28;19935;-62
2022/03/03 07:29:58;;;;;;;;;;;;;;;0.75;44.41;98604.91;5058236;28;19929;-62
2022/03/03 07:32:28;;;;;;;;;;;;;;;0.90;44.31;98602.16;5056717;28;20058;-62
2022/03/03 07:34:55;;;;;;;;;;;;;;;1.00;43.83;98601.78;5050209;28;20011;-65
2022/03/03 07:37:21;;;;;;;;;;;;;;;1.06;43.85;98606.22;5049327;28;19921;-61
2022/03/03 07:39:46;;;;;;;;;;;;;;;1.05;43.96;98599.41;5061078;28;19952;-62
2022/03/03 07:42:12;;;;;;;;;;;;;;;1.04;43.80;98598.59;5048838;28;19956;-61
2022/03/03 07:44:38;;;;;;;;;;;;;;;1.18;43.53;98593.41;5051514;28;20446;-63
2022/03/03 07:47:06;;;;;;;;;;;;;;;1.34;43.41;98601.72;5047702;28;19931;-61
2022/03/03 07:49:31;;;;;;;;;;;;;;;1.45;43.30;98594.31;5046798;28;19929;-62
2022/03/03 07:51:57;;;;;;;;;;;;;;;1.53;43.35;98591.50;5049529;28;20385;-62
2022/03/03 07:54:23;;;;;;;;;;;;;;;1.62;42.92;98592.94;5067315;28;19976;-63
2022/03/03 07:56:48;;;;;;;;;;;;;;;1.58;42.93;98592.50;5056312;28;19928;-62
2022/03/03 07:59:20;;;;;;;;;;;;;;;1.72;43.03;98584.72;5060043;28;19929;-64
2022/03/03 08:01:46;;;;;;;;;;;;;;;1.86;42.90;98577.69;5065500;28;20317;-60
2022/03/03 08:04:14;;;;;;;;;;;;;;;1.98;42.40;98587.34;5068376;28;19929;-63
2022/03/03 08:06:40;;;;;;;;;;;;;;;1.95;42.27;98577.28;5048290;28;20386;-63
2022/03/03 08:09:05;;;;;;;;;;;;;;;1.91;42.28;98583.94;5045388;28;19928;-61
2022/03/03 08:11:31;;;;;;;;;;;;;;;2.03;42.26;98584.13;5029223;28;20313;-62
2022/03/03 08:13:56;;;;;;;;;;;;;;;2.10;42.15;98592.75;5046316;28;20390;-63
2022/03/03 08:16:22;;;;;;;;;;;;;;;2.23;41.64;98584.88;5048013;28;20031;-61
2022/03/03 08:18:48;;;;;;;;;;;;;;;2.34;41.53;98580.84;5048942;28;19928;-61
2022/03/03 08:21:14;;;;;;;;;;;;;;;2.39;41.34;98586.28;5030745;28;19925;-62
2022/03/03 08:23:39;;;;;;;;;;;;;;;2.34;41.10;98573.00;5048178;28;19929;-64
2022/03/03 08:26:06;;;;;;;;;;;;;;;2.39;41.50;98583.69;5046760;28;19925;-62
2022/03/03 08:28:34;;;;;;;;;;;;;;;2.46;41.58;98583.66;5048860;28;19928;-62
2022/03/03 08:31:01;;;;;;;;;;;;;;;2.61;41.09;98575.56;5049365;28;19924;-62
2022/03/03 08:33:46;;;;;;;;;;;;;;;2.73;41.21;98573.91;5048678;28;19968;-61
2022/03/03 08:36:18;;;;;;;;;;;;;;;2.65;40.98;98564.50;5048266;28;20541;-62
2022/03/03 08:38:48;;;;;;;;;;;;;;;2.66;40.99;98566.09;5045680;28;19944;-60
2022/03/03 08:41:17;;;;;;;;;;;;;;;2.70;40.81;98567.28;5011657;28;20226;-62
2022/03/03 08:43:44;;;;;;;;;;;;;;;2.71;41.14;98563.69;5047293;28;19975;-61
2022/03/03 08:46:09;;;;;;;;;;;;;;;2.82;40.74;98562.22;5029493;28;19932;-62
2022/03/03 08:48:35;;;;;;;;;;;;;;;2.94;40.63;98571.03;5045099;28;19933;-62
2022/03/03 08:51:01;;;;;;;;;;;;;;;3.02;40.76;98577.84;5046170;28;19925;-62
2022/03/03 08:53:27;;;;;;;;;;;;;;;3.03;40.66;98573.41;5046222;28;20035;-62
2022/03/03 08:55:54;;;;;;;;;;;;;;;3.08;40.38;98568.34;5044792;28;20484;-62
2022/03/03 08:58:20;;;;;;;;;;;;;;;3.13;40.52;98569.34;5047143;28;19952;-61
2022/03/03 09:00:48;;;;;;;;;;;;;;;3.15;40.27;98572.56;5047692;28;20053;-60
2022/03/03 09:03:15;;;;;;;;;;;;;;;3.28;40.05;98566.44;5047550;28;20339;-63
2022/03/03 09:05:41;;;;;;;;;;;;;;;3.32;39.96;98566.81;5047724;28;19925;-62
2022/03/03 09:08:07;;;;;;;;;;;;;;;3.40;39.77;98569.19;5013013;28;20414;-62
2022/03/03 09:10:33;;;;;;;;;;;;;;;3.40;39.83;98567.38;5047285;28;19924;-62
2022/03/03 09:13:00;;;;;;;;;;;;;;;3.50;39.73;98571.34;5048136;28;20339;-64
2022/03/03 09:15:26;;;;;;;;;;;;;;;3.51;39.48;98568.53;5047987;28;19924;-61
2022/03/03 09:17:52;;;;;;;;;;;;;;;3.60;38.89;98559.38;5046485;28;19936;-62
2022/03/03 09:20:17;;;;;;;;;;;;;;;3.68;38.80;98553.09;5045784;28;20386;-62
2022/03/03 09:22:43;;;;;;;;;;;;;;;3.71;38.61;98557.09;5050298;28;19925;-63
2022/03/03 09:25:10;;;;;;;;;;;;;;;3.74;38.94;98551.44;5051185;28;19956;-62
2022/03/03 09:27:35;;;;;;;;;;;;;;;3.68;38.46;98553.09;5050991;28;19978;-63
2022/03/03 09:30:02;;;;;;;;;;;;;;;3.71;38.84;98550.03;5051745;28;19932;-60
2022/03/03 09:32:28;;;;;;;;;;;;;;;3.71;38.71;98552.66;5050286;28;19936;-61
2022/03/03 09:34:54;;;;;;;;;;;;;;;3.79;38.80;98547.13;5051287;28;19929;-61
2022/03/03 09:37:19;;;;;;;;;;;;;;;3.92;38.61;98548.06;5052642;28;19970;-61
2022/03/03 09:39:47;;;;;;;;;;;;;;;3.91;38.00;98542.00;5048281;28;19964;-63
2022/03/03 09:42:13;;;;;;;;;;;;;;;3.94;38.65;98536.34;5050710;28;19924;-61
2022/03/03 09:44:38;;;;;;;;;;;;;;;3.99;38.84;98535.69;5051753;28;19937;-63
2022/03/03 09:47:04;;;;;;;;;;;;;;;4.06;38.14;98531.22;5050950;28;19924;-61
2022/03/03 09:49:30;;;;;;;;;;;;;;;4.15;38.23;98523.84;5050437;28;19928;-64
2022/03/03 09:51:55;;;;;;;;;;;;;;;4.24;37.68;98527.81;5052235;28;19967;-62
2022/03/03 09:54:21;;;;;;;;;;;;;;;4.27;38.06;98527.38;5049043;28;19936;-64
2022/03/03 09:56:46;;;;;;;;;;;;;;;4.31;37.88;98518.84;5050570;28;19932;-60
2022/03/03 09:59:12;;;;;;;;;;;;;;;4.31;38.17;98518.03;5050981;28;19929;-63
2022/03/03 10:01:38;;;;;;;;;;;;;;;4.33;38.11;98513.38;5062955;28;19929;-62
2022/03/03 10:04:36;;;;;;;;;;;;;;;4.36;38.05;98518.19;5069565;28;19929;-63
2022/03/03 10:07:05;;;;;;;;;;;;;;;4.39;38.32;98509.09;5069377;28;19925;-61
2022/03/03 10:09:31;;;;;;;;;;;;;;;4.40;37.62;98502.81;5070029;28;20018;-63
2022/03/03 10:12:00;;;;;;;;;;;;;;;4.48;37.47;98508.56;5070256;28;20415;-61
2022/03/03 10:14:29;;;;;;;;;;;;;;;4.49;38.08;98501.50;5070480;28;19928;-64
2022/03/03 10:16:55;;;;;;;;;;;;;;;4.42;38.31;98506.03;5068445;28;20302;-60
2022/03/03 10:19:20;;;;;;;;;;;;;;;4.45;38.22;98500.34;5070227;28;19934;-63
2022/03/03 10:21:46;;;;;;;;;;;;;;;4.46;38.15;98494.06;5036646;28;20401;-62
2022/03/03 10:24:15;;;;;;;;;;;;;;;4.50;38.10;98497.84;5068791;28;19975;-63
2022/03/03 10:26:41;;;;;;;;;;;;;;;4.55;37.53;98498.78;5069758;28;19924;-63
2022/03/03 10:29:19;;;;;;;;;;;;;;;4.61;38.02;98496.31;5072355;28;20290;-64
2022/03/03 10:31:48;;;;;;;;;;;;;;;4.54;38.26;98499.00;5071477;28;20003;-61
2022/03/03 10:34:15;;;;;;;;;;;;;;;4.53;37.85;98490.34;5067848;28;19929;-64
2022/03/03 10:36:40;;;;;;;;;;;;;;;4.55;38.04;98492.72;5050859;28;19926;-66
2022/03/03 10:39:06;;;;;;;;;;;;;;;4.60;37.71;98497.34;5051715;28;19991;-66
2022/03/03 10:41:40;;;;;;;;;;;;;;;4.64;37.80;98491.41;5054607;28;20550;-64
2022/03/03 10:44:09;;;;;;;;;;;;;;;4.68;37.73;98495.22;5051385;28;19929;-63
2022/03/03 10:46:36;;;;;;;;;;;;;;;4.71;37.24;98499.22;5051805;28;20412;-63
2022/03/03 10:49:20;;;;;;;;;;;;;;;4.65;38.43;98489.63;5051873;28;19928;-61
2022/03/03 10:51:46;;;;;;;;;;;;;;;4.68;38.40;98492.59;5051681;28;19999;-61
2022/03/03 10:54:11;;;;;;;;;;;;;;;4.74;38.04;98483.03;5050046;28;20397;-61
2022/03/03 10:56:44;;;;;;;;;;;;;;;4.74;37.93;98490.91;5051988;28;19976;-59
2022/03/03 10:59:17;;;;;;;;;;;;;;;4.74;38.03;98491.69;5052368;28;19929;-64
2022/03/03 11:01:43;;;;;;;;;;;;;;;4.76;38.45;98486.22;5033200;28;19925;-62
2022/03/03 11:04:26;;;;;;;;;;;;;;;4.75;38.28;98485.41;5051504;28;19978;-63
2022/03/03 11:07:05;;;;;;;;;;;;;;;4.74;37.92;98485.66;5031061;28;20608;-62
2022/03/03 11:09:32;;;;;;;;;;;;;;;4.83;38.75;98478.28;5080939;28;20003;-64
2022/03/03 11:11:58;;;;;;;;;;;;;;;4.83;38.13;98476.44;5048916;28;19924;-61
2022/03/03 11:14:23;;;;;;;;;;;;;;;4.76;38.81;98475.72;5047942;28;20417;-63
2022/03/03 11:16:49;;;;;;;;;;;;;;;4.74;38.35;98475.94;5048504;28;19935;-60
2022/03/03 11:19:14;;;;;;;;;;;;;;;4.81;38.19;98472.44;5046866;28;19928;-62
2022/03/03 11:21:40;;;;;;;;;;;;;;;4.80;38.54;98469.00;5047584;28;19920;-62
2022/03/03 11:24:08;;;;;;;;;;;;;;;4.86;37.92;98477.84;5050099;28;19972;-62
2022/03/03 11:26:44;;;;;;;;;;;;;;;4.75;38.23;98474.91;5050748;28;19925;-61
2022/03/03 11:29:12;;;;;;;;;;;;;;;4.73;38.04;98470.91;5047520;28;19933;-62
2022/03/03 11:31:39;;;;;;;;;;;;;;;4.77;38.11;98464.22;5049877;28;19928;-61
2022/03/03 11:34:25;;;;;;;;;;;;;;;4.80;38.36;98463.75;5051667;28;19928;-63
2022/03/03 11:36:58;;;;;;;;;;;;;;;4.81;38.27;98465.34;5049791;28;19971;-64
2022/03/03 11:39:59;;;;;;;;;;;;;;;4.86;38.62;98469.94;5049300;28;20019;-64
2022/03/03 11:42:25;;;;;;;;;;;;;;;4.94;38.23;98470.44;5063053;28;19924;-62
2022/03/03 11:44:52;;;;;;;;;;;;;;;4.97;38.24;98469.16;5066026;28;20535;-62
2022/03/03 11:47:25;;;;;;;;;;;;;;;4.97;38.24;98458.66;5067793;28;20488;-62
2022/03/03 11:50:04;;;;;;;;;;;;;;;5.01;38.34;98455.38;5070325;28;20433;-63
2022/03/03 11:52:30;;;;;;;;;;;;;;;4.98;38.09;98461.09;5068442;28;19921;-60
2022/03/03 11:54:58;;;;;;;;;;;;;;;4.96;37.72;98457.06;5071057;28;19936;-62
2022/03/03 11:57:27;;;;;;;;;;;;;;;4.97;38.44;98451.63;5048757;28;19920;-63
2022/03/03 11:59:54;;;;;;;;;;;;;;;4.89;38.22;98449.28;5055859;28;19929;-63
2022/03/03 12:02:27;;;;;;;;;;;;;;;4.87;38.15;98450.53;5049467;28;19920;-63
2022/03/03 12:05:11;;;;;;;;;;;;;;;4.89;37.75;98451.91;5051537;28;20009;-62
2022/03/03 12:07:36;;;;;;;;;;;;;;;4.86;38.75;98448.94;5065873;28;19978;-62
2022/03/03 12:10:12;;;;;;;;;;;;;;;4.86;38.52;98452.38;5069293;28;19928;-61
2022/03/03 12:12:38;;;;;;;;;;;;;;;4.94;37.91;98453.84;5057696;28;19928;-60
2022/03/03 12:15:04;;;;;;;;;;;;;;;4.98;38.20;98457.66;5030399;28;20319;-61
2022/03/03 12:17:34;;;;;;;;;;;;;;;4.93;38.06;98458.31;5049446;28;20023;-63
2022/03/03 12:20:37;;;;;;;;;;;;;;;4.94;37.88;98454.69;5047832;28;19936;-62
2022/03/03 12:23:04;;;;;;;;;;;;;;;4.95;37.93;98452.84;5065124;28;19955;-63
2022/03/03 12:25:50;;;;;;;;;;;;;;;4.96;38.13;98452.63;5053719;28;20433;-61
2022/03/03 12:28:18;;;;;;;;;;;;;;;4.94;37.60;98451.22;5050558;28;19936;-61
2022/03/03 12:30:44;;;;;;;;;;;;;;;4.96;37.85;98447.38;5048502;28;19983;-63
2022/03/03 12:33:22;;;;;;;;;;;;;;;4.89;38.12;98449.28;5049409;28;20382;-64
2022/03/03 12:35:47;;;;;;;;;;;;;;;4.89;37.13;98451.13;5048611;28;20095;-64
2022/03/03 12:38:13;;;;;;;;;;;;;;;4.83;36.93;98449.41;5048434;28;19932;-62
2022/03/03 12:40:39;;;;;;;;;;;;;;;4.82;37.07;98445.16;5049712;28;19929;-61
2022/03/03 12:43:11;;;;;;;;;;;;;;;4.82;36.37;98445.94;5046346;28;19982;-62
2022/03/03 12:45:37;;;;;;;;;;;;;;;4.87;36.31;98440.03;5032194;28;19925;-62
2022/03/03 12:48:03;;;;;;;;;;;;;;;4.79;36.64;98441.13;5068580;28;20302;-65
2022/03/03 12:50:29;;;;;;;;;;;;;;;4.81;37.10;98448.81;5040710;28;19929;-62
2022/03/03 12:52:59;;;;;;;;;;;;;;;4.77;36.63;98446.63;5048422;28;19983;-62